KMWM

Windom Municipal Airport

Windom, Minnesota, USA
METAR KMWM 230315Z AUTO 11005KT 10SM CLR 21/10 A3001 RMK AO2
Observed Flight Rules
May-23 @ 03:15 UTC (10 minutes ago) Visual Flight Rules
Wind Visibility Clouds
110° at 5 knots 10 miles
  • Clear skies
Temperatures Readings
Current 21°C / 70°F
Dewpoint 10°C / 50°F
Humidity 50%
Altimeter 30.01" Hg
Pressure 1016 hPa
Elevation 430
METAR KMWM 230315Z AUTO 11005KT 10SM CLR 21/10 A3001 RMK AO2
Observed Flight Rules
May-23 @ 03:15 UTC
(10 minutes ago)
VFR
Wind Visibility
110° at 5 knots 10 miles
Clouds
  • Clear skies
Temperature Dewpoint
21°C / 70°F 10°C / 50°F
Humidity Altimeter Pressure
50% 30.01" Hg 1016 hPa